createdAt,value
2019-05-19T00:00:09.828Z,13.8
2019-05-19T00:01:52.858Z,13.8
2019-05-19T00:03:52.812Z,13.8
2019-05-19T00:05:52.783Z,13.8
2019-05-19T00:07:52.786Z,13.8
2019-05-19T00:09:52.942Z,13.8
2019-05-19T00:11:52.952Z,13.8
2019-05-19T00:13:52.905Z,13.8
2019-05-19T00:15:09.883Z,13.8
2019-05-19T00:15:52.927Z,13.8
2019-05-19T00:17:52.874Z,13.8
2019-05-19T00:19:52.947Z,13.8
2019-05-19T00:21:52.943Z,13.8
2019-05-19T00:23:52.808Z,13.8
2019-05-19T00:25:52.889Z,13.8
2019-05-19T00:27:52.807Z,13.8
2019-05-19T00:29:52.864Z,13.8
2019-05-19T00:30:09.894Z,13.8
2019-05-19T00:31:52.878Z,13.8
2019-05-19T00:33:52.890Z,13.8
2019-05-19T00:35:52.945Z,13.8
2019-05-19T00:37:52.868Z,13.7
2019-05-19T00:39:52.854Z,13.7
2019-05-19T00:41:52.890Z,13.7
2019-05-19T00:43:52.907Z,13.7
2019-05-19T00:45:09.851Z,13.7
2019-05-19T00:45:52.829Z,13.7
2019-05-19T00:47:52.825Z,13.6
2019-05-19T00:49:52.865Z,13.6
2019-05-19T00:51:52.874Z,13.6
2019-05-19T00:53:52.928Z,13.6
2019-05-19T00:55:52.879Z,13.6
2019-05-19T00:57:52.874Z,13.6
2019-05-19T00:59:52.923Z,13.6
2019-05-19T01:00:09.800Z,13.6
2019-05-19T01:01:52.854Z,13.6
2019-05-19T01:03:52.858Z,13.6
2019-05-19T01:05:52.862Z,13.6
2019-05-19T01:07:52.876Z,13.6
2019-05-19T01:09:52.864Z,13.6
2019-05-19T01:11:52.829Z,13.6
2019-05-19T01:13:52.902Z,13.6
2019-05-19T01:15:09.848Z,13.6
2019-05-19T01:15:52.955Z,13.6
2019-05-19T01:17:52.869Z,13.6
2019-05-19T01:19:55.773Z,13.6
2019-05-19T01:21:52.859Z,13.6
2019-05-19T01:23:52.870Z,13.6
2019-05-19T01:25:52.849Z,13.6
2019-05-19T01:27:52.865Z,13.6
2019-05-19T01:29:52.887Z,13.5
2019-05-19T01:30:09.894Z,13.5
2019-05-19T01:31:52.859Z,13.5
2019-05-19T01:33:53.762Z,13.5
2019-05-19T01:35:52.817Z,13.5
2019-05-19T01:37:52.951Z,13.5
2019-05-19T01:39:52.956Z,13.5
2019-05-19T01:41:52.788Z,13.4
2019-05-19T01:43:52.954Z,13.4
2019-05-19T01:45:09.925Z,13.4
2019-05-19T01:45:52.866Z,13.4
2019-05-19T01:47:52.901Z,13.4
2019-05-19T01:49:52.870Z,13.4
2019-05-19T01:51:53.749Z,13.4
2019-05-19T01:53:52.935Z,13.4
2019-05-19T01:55:52.860Z,13.4
2019-05-19T01:57:53.743Z,13.4
2019-05-19T01:59:52.858Z,13.4
2019-05-19T02:00:09.845Z,13.4
2019-05-19T02:01:52.867Z,13.4
2019-05-19T02:03:52.781Z,13.3
2019-05-19T02:05:52.964Z,13.3
2019-05-19T02:07:52.860Z,13.3
2019-05-19T02:09:52.927Z,13.4
2019-05-19T02:11:52.873Z,13.3
2019-05-19T02:13:52.810Z,13.3
2019-05-19T02:15:09.896Z,13.3
2019-05-19T02:15:52.910Z,13.3
2019-05-19T02:17:52.870Z,13.3
2019-05-19T02:19:52.839Z,13.3
2019-05-19T02:21:52.861Z,13.3
2019-05-19T02:23:52.944Z,13.3
2019-05-19T02:25:52.863Z,13.3
2019-05-19T02:27:52.876Z,13.3
2019-05-19T02:29:52.847Z,13.2
2019-05-19T02:30:09.787Z,13.3
2019-05-19T02:31:53.819Z,13.2
2019-05-19T02:33:52.851Z,13.2
2019-05-19T02:35:52.861Z,13.2
2019-05-19T02:37:52.857Z,13.2
2019-05-19T02:39:52.874Z,13.2
2019-05-19T02:41:52.987Z,13.2
2019-05-19T02:43:52.791Z,13.2
2019-05-19T02:45:09.856Z,13.1
2019-05-19T02:45:53.739Z,13.1
2019-05-19T02:47:52.873Z,13.1
2019-05-19T02:49:52.861Z,13.1
2019-05-19T02:51:52.849Z,13.1
2019-05-19T02:53:52.811Z,13.1
2019-05-19T02:55:52.932Z,13.1
2019-05-19T02:57:52.943Z,13.1
2019-05-19T02:59:52.901Z,13.1
2019-05-19T03:00:09.800Z,13.1
2019-05-19T03:01:52.930Z,13.1
2019-05-19T03:03:52.871Z,13.1
2019-05-19T03:05:52.882Z,13.1
2019-05-19T03:07:52.818Z,13
2019-05-19T03:09:52.861Z,13
2019-05-19T03:11:53.819Z,12.9
2019-05-19T03:13:54.391Z,12.9
2019-05-19T03:15:10.603Z,12.9
2019-05-19T03:15:52.869Z,12.9
2019-05-19T03:17:52.857Z,12.9
2019-05-19T03:19:52.768Z,12.9
2019-05-19T03:21:52.873Z,12.9
2019-05-19T03:23:52.942Z,12.9
2019-05-19T03:25:52.858Z,12.9
2019-05-19T03:27:52.856Z,12.9
2019-05-19T03:29:52.863Z,12.8
2019-05-19T03:30:09.870Z,12.8
2019-05-19T03:31:52.862Z,12.8
2019-05-19T03:33:53.918Z,12.8
2019-05-19T03:35:52.888Z,12.8
2019-05-19T03:37:52.877Z,12.8
2019-05-19T03:39:52.861Z,12.8
2019-05-19T03:41:52.891Z,12.8
2019-05-19T03:43:52.855Z,12.8
2019-05-19T03:45:09.842Z,12.8
2019-05-19T03:45:52.962Z,12.8
2019-05-19T03:47:52.844Z,12.8
2019-05-19T03:49:52.905Z,12.8
2019-05-19T03:51:52.882Z,12.8
2019-05-19T03:53:52.943Z,12.8
2019-05-19T03:55:52.882Z,12.8
2019-05-19T03:57:52.857Z,12.8
2019-05-19T03:59:52.910Z,12.8
2019-05-19T04:00:09.829Z,12.8
2019-05-19T04:01:52.951Z,12.8
2019-05-19T04:03:52.881Z,12.9
2019-05-19T04:05:53.784Z,12.9
2019-05-19T04:07:52.853Z,12.8
2019-05-19T04:09:52.877Z,12.9
2019-05-19T04:11:52.880Z,12.8
2019-05-19T04:13:52.819Z,12.8
2019-05-19T04:15:09.927Z,12.8
2019-05-19T04:15:52.774Z,12.8
2019-05-19T04:17:52.884Z,12.8
2019-05-19T04:19:52.879Z,12.8
2019-05-19T04:21:52.873Z,12.8
2019-05-19T04:23:52.869Z,12.8
2019-05-19T04:25:52.838Z,12.8
2019-05-19T04:27:52.967Z,12.8
2019-05-19T04:29:52.868Z,12.8
2019-05-19T04:30:09.885Z,12.9
2019-05-19T04:31:52.948Z,12.9
2019-05-19T04:33:52.819Z,12.9
2019-05-19T04:35:57.203Z,12.9
2019-05-19T04:37:52.865Z,12.9
2019-05-19T04:39:52.909Z,12.9
2019-05-19T04:41:52.887Z,12.9
2019-05-19T04:43:52.881Z,12.9
2019-05-19T04:45:09.917Z,12.9
2019-05-19T04:45:52.956Z,12.9
2019-05-19T04:47:52.868Z,13
2019-05-19T04:49:52.815Z,13
2019-05-19T04:52:05.766Z,13
2019-05-19T04:53:52.957Z,13.1
2019-05-19T04:55:52.879Z,13.1
2019-05-19T04:57:52.855Z,13.1
2019-05-19T04:59:52.883Z,13.2
2019-05-19T05:00:09.830Z,13.2
2019-05-19T05:01:52.903Z,13.1
2019-05-19T05:03:52.864Z,13.2
2019-05-19T05:05:53.002Z,13.1
2019-05-19T05:07:52.923Z,13.1
2019-05-19T05:09:52.925Z,13.1
2019-05-19T05:11:52.875Z,13.1
2019-05-19T05:13:53.081Z,13.1
2019-05-19T05:15:09.890Z,13.1
2019-05-19T05:15:52.891Z,13.1
2019-05-19T05:17:52.910Z,13.1
2019-05-19T05:19:52.913Z,13.1
2019-05-19T05:21:53.005Z,13.1
2019-05-19T05:23:52.868Z,13.2
2019-05-19T05:25:52.890Z,13.2
2019-05-19T05:27:52.932Z,13.3
2019-05-19T05:29:52.950Z,13.3
2019-05-19T05:30:09.920Z,13.3
2019-05-19T05:31:52.856Z,13.3
2019-05-19T05:33:52.793Z,13.3
2019-05-19T05:35:52.833Z,13.4
2019-05-19T05:37:52.861Z,13.4
2019-05-19T05:39:52.947Z,13.5
2019-05-19T05:41:52.946Z,13.5
2019-05-19T05:43:52.878Z,13.5
2019-05-19T05:45:09.764Z,13.6
2019-05-19T05:45:53.732Z,13.6
2019-05-19T05:47:53.034Z,13.6
2019-05-19T05:49:52.880Z,13.6
2019-05-19T05:51:52.992Z,13.6
2019-05-19T05:53:52.867Z,13.6
2019-05-19T05:55:52.960Z,13.6
2019-05-19T05:57:52.934Z,13.6
2019-05-19T05:59:52.894Z,13.5
2019-05-19T06:00:10.750Z,13.6
2019-05-19T06:01:52.863Z,13.5
2019-05-19T06:03:52.873Z,13.6
2019-05-19T06:05:52.849Z,13.6
2019-05-19T06:07:52.950Z,13.6
2019-05-19T06:09:53.742Z,13.6
2019-05-19T06:11:52.977Z,13.6
2019-05-19T06:13:52.864Z,13.6
2019-05-19T06:15:09.862Z,13.6
2019-05-19T06:15:53.625Z,13.6
2019-05-19T06:17:52.823Z,13.7
2019-05-19T06:19:52.918Z,13.7
2019-05-19T06:21:52.856Z,13.8
2019-05-19T06:23:52.863Z,13.7
2019-05-19T06:25:52.836Z,13.8
2019-05-19T06:27:52.873Z,13.8
2019-05-19T06:29:52.867Z,13.9
2019-05-19T06:30:09.879Z,13.9
2019-05-19T06:31:52.905Z,14.1
2019-05-19T06:33:52.828Z,14.1
2019-05-19T06:35:52.846Z,14.1
2019-05-19T06:37:52.872Z,14.2
2019-05-19T06:39:52.942Z,14.3
2019-05-19T06:41:53.786Z,14.3
2019-05-19T06:43:52.852Z,14.3
2019-05-19T06:45:09.929Z,14.3
2019-05-19T06:45:52.956Z,14.3
2019-05-19T06:47:52.926Z,14.4
2019-05-19T06:49:52.848Z,14.4
2019-05-19T06:51:53.732Z,14.4
2019-05-19T06:53:52.967Z,14.4
2019-05-19T06:55:52.884Z,14.6
2019-05-19T06:57:52.953Z,14.6
2019-05-19T06:59:52.816Z,14.6
2019-05-19T07:00:09.891Z,14.7
2019-05-19T07:01:52.890Z,14.8
2019-05-19T07:03:52.857Z,14.8
2019-05-19T07:05:52.863Z,14.9
2019-05-19T07:07:53.751Z,15
2019-05-19T07:09:58.179Z,15
2019-05-19T07:11:53.696Z,15.2
2019-05-19T07:13:52.864Z,15.2
2019-05-19T07:15:09.893Z,15.2
2019-05-19T07:15:52.818Z,15.2
2019-05-19T07:17:52.884Z,15.1
2019-05-19T07:19:52.856Z,15.2
2019-05-19T07:21:52.843Z,15.2
2019-05-19T07:23:52.928Z,15.3
2019-05-19T07:25:52.825Z,15.5
2019-05-19T07:27:52.858Z,15.6
2019-05-19T07:29:52.858Z,15.8
2019-05-19T07:30:09.837Z,15.8
2019-05-19T07:31:53.747Z,15.9
2019-05-19T07:33:52.863Z,15.9
2019-05-19T07:35:52.915Z,15.9
2019-05-19T07:37:52.826Z,15.9
2019-05-19T07:39:52.885Z,15.9
2019-05-19T07:41:52.904Z,16.1
2019-05-19T07:43:52.875Z,16.1
2019-05-19T07:45:09.836Z,16.1
2019-05-19T07:45:52.834Z,16.1
2019-05-19T07:47:52.829Z,16.3
2019-05-19T07:49:52.863Z,16.3
2019-05-19T07:51:52.912Z,16.1
2019-05-19T07:53:53.616Z,16.2
2019-05-19T07:55:52.948Z,16.3
2019-05-19T07:57:52.775Z,16.2
2019-05-19T07:59:52.876Z,16.2
2019-05-19T08:00:09.894Z,16.2
2019-05-19T08:01:52.819Z,16.3
2019-05-19T08:03:52.866Z,16.5
2019-05-19T08:05:52.819Z,16.6
2019-05-19T08:07:52.875Z,16.7
2019-05-19T08:09:52.821Z,16.9
2019-05-19T08:11:52.820Z,16.9
2019-05-19T08:13:52.814Z,17.1
2019-05-19T08:15:09.964Z,17.1
2019-05-19T08:15:52.854Z,17.1
2019-05-19T08:17:52.936Z,17.2
2019-05-19T08:19:52.872Z,17.1
2019-05-19T08:21:52.854Z,17
2019-05-19T08:24:00.210Z,17.1
2019-05-19T08:25:52.814Z,17.3
2019-05-19T08:27:52.943Z,17.3
2019-05-19T08:29:53.077Z,17.2
2019-05-19T08:30:09.786Z,17.2
2019-05-19T08:31:52.863Z,17.5
2019-05-19T08:33:52.984Z,17.6
2019-05-19T08:35:52.864Z,17.5
2019-05-19T08:37:52.873Z,17.7
2019-05-19T08:39:52.943Z,17.8
2019-05-19T08:41:52.861Z,17.6
2019-05-19T08:43:53.431Z,17.6
2019-05-19T08:45:09.891Z,17.6
2019-05-19T08:45:52.943Z,17.6
2019-05-19T08:47:52.867Z,17.6
2019-05-19T08:49:52.868Z,17.7
2019-05-19T08:51:52.879Z,17.8
2019-05-19T08:53:52.816Z,17.6
2019-05-19T08:55:52.837Z,17.7
2019-05-19T08:57:52.878Z,17.7
2019-05-19T08:59:52.825Z,18
2019-05-19T09:00:09.868Z,18.1
2019-05-19T09:01:52.910Z,18.1
2019-05-19T09:03:53.762Z,18.1
2019-05-19T09:05:52.830Z,18.3
2019-05-19T09:07:52.823Z,18.4
2019-05-19T09:09:52.900Z,18.4
2019-05-19T09:11:52.869Z,18.3
2019-05-19T09:13:52.866Z,18.3
2019-05-19T09:15:09.845Z,18.4
2019-05-19T09:15:52.901Z,18.5
2019-05-19T09:17:54.244Z,18.6
2019-05-19T09:19:52.894Z,18.6
2019-05-19T09:21:52.900Z,18.6
2019-05-19T09:23:52.873Z,18.4
2019-05-19T09:25:52.849Z,18.6
2019-05-19T09:27:52.963Z,18.6
2019-05-19T09:29:52.863Z,18.7
2019-05-19T09:30:09.895Z,18.6
2019-05-19T09:31:52.916Z,18.7
2019-05-19T09:33:52.885Z,18.6
2019-05-19T09:35:52.859Z,18.6
2019-05-19T09:37:52.866Z,18.7
2019-05-19T09:39:52.867Z,18.7
2019-05-19T09:41:52.860Z,18.8
2019-05-19T09:43:52.894Z,18.7
2019-05-19T09:45:09.968Z,18.8
2019-05-19T09:45:52.776Z,18.8
2019-05-19T09:47:53.743Z,18.9
2019-05-19T09:49:52.857Z,19
2019-05-19T09:51:52.906Z,18.9
2019-05-19T09:53:52.866Z,19
2019-05-19T09:55:52.865Z,18.8
2019-05-19T09:57:52.862Z,18.8
2019-05-19T09:59:52.853Z,18.8
2019-05-19T10:00:09.861Z,18.8
2019-05-19T10:01:52.935Z,18.8
2019-05-19T10:03:52.806Z,18.7
2019-05-19T10:05:52.868Z,18.4
2019-05-19T10:07:52.854Z,18.6
2019-05-19T10:09:52.857Z,18.7
2019-05-19T10:11:52.815Z,18.6
2019-05-19T10:13:52.854Z,18.6
2019-05-19T10:15:09.840Z,18.8
2019-05-19T10:15:52.857Z,18.9
2019-05-19T10:17:52.885Z,19.1
2019-05-19T10:19:52.887Z,19.3
2019-05-19T10:21:52.952Z,19.4
2019-05-19T10:23:52.852Z,19.6
2019-05-19T10:25:52.877Z,19.5
2019-05-19T10:27:52.868Z,19.6
2019-05-19T10:29:52.862Z,19.7
2019-05-19T10:30:09.824Z,19.7
2019-05-19T10:31:54.436Z,19.8
2019-05-19T10:33:52.876Z,19.7
2019-05-19T10:35:52.861Z,19.6
2019-05-19T10:37:52.893Z,19.7
2019-05-19T10:39:53.073Z,19.6
2019-05-19T10:41:52.860Z,19.8
2019-05-19T10:43:52.942Z,19.9
2019-05-19T10:45:09.887Z,19.4
2019-05-19T10:45:52.766Z,19.3
2019-05-19T10:47:52.949Z,19.6
2019-05-19T10:49:52.866Z,19.9
2019-05-19T10:51:53.769Z,20
2019-05-19T10:53:52.874Z,20
2019-05-19T10:55:52.869Z,20
2019-05-19T10:57:52.906Z,19.8
2019-05-19T10:59:52.876Z,20
2019-05-19T11:00:09.873Z,19.9
2019-05-19T11:01:52.840Z,20.2
2019-05-19T11:03:52.883Z,20.6
2019-05-19T11:05:52.944Z,20.8
2019-05-19T11:07:52.864Z,20.6
2019-05-19T11:09:52.869Z,20.6
2019-05-19T11:11:52.885Z,20.8
2019-05-19T11:13:52.886Z,20.6
2019-05-19T11:15:09.856Z,20.8
2019-05-19T11:15:52.924Z,20.7
2019-05-19T11:17:52.951Z,20.9
2019-05-19T11:19:52.927Z,21.2
2019-05-19T11:21:52.948Z,20.6
2019-05-19T11:23:52.960Z,20.5
2019-05-19T11:25:52.877Z,20.5
2019-05-19T11:27:52.951Z,20.8
2019-05-19T11:29:52.956Z,20.9
2019-05-19T11:30:09.897Z,20.9
2019-05-19T11:31:52.884Z,21
2019-05-19T11:33:52.876Z,20.8
2019-05-19T11:35:52.810Z,21
2019-05-19T11:37:52.857Z,20.8
2019-05-19T11:39:53.765Z,21.3
2019-05-19T11:41:52.969Z,21.8
2019-05-19T11:43:52.874Z,21.8
2019-05-19T11:45:09.903Z,21.3
2019-05-19T11:45:52.863Z,21.2
2019-05-19T11:47:52.939Z,21.5
2019-05-19T11:49:52.861Z,21.7
2019-05-19T11:51:52.849Z,21.8
2019-05-19T11:53:54.623Z,21.8
2019-05-19T11:56:05.632Z,21.8
2019-05-19T11:57:52.949Z,21.9
2019-05-19T11:59:52.879Z,21.5
2019-05-19T12:00:09.883Z,21.5
2019-05-19T12:01:52.867Z,21.1
2019-05-19T12:03:55.421Z,20.7
2019-05-19T12:05:52.942Z,21.1
2019-05-19T12:07:52.818Z,21.4
2019-05-19T12:09:52.880Z,21.6
2019-05-19T12:11:52.886Z,21.4
2019-05-19T12:13:52.869Z,21.5
2019-05-19T12:15:09.936Z,21.2
2019-05-19T12:15:53.758Z,21.3
2019-05-19T12:17:52.881Z,21
2019-05-19T12:19:52.960Z,21.3
2019-05-19T12:21:52.862Z,21.5
2019-05-19T12:23:52.872Z,21.5
2019-05-19T12:25:52.874Z,21.5
2019-05-19T12:27:52.957Z,21.6
2019-05-19T12:29:53.035Z,21.5
2019-05-19T12:30:09.872Z,21.5
2019-05-19T12:31:52.861Z,21.3
2019-05-19T12:33:52.875Z,21.3
2019-05-19T12:35:52.813Z,21.4
2019-05-19T12:37:52.873Z,21.3
2019-05-19T12:39:52.871Z,21.4
2019-05-19T12:41:52.981Z,21.4
2019-05-19T12:43:52.890Z,21.1
2019-05-19T12:45:09.895Z,21
2019-05-19T12:45:52.889Z,20.9
2019-05-19T12:47:52.943Z,20.9
2019-05-19T12:49:52.848Z,21.1
2019-05-19T12:51:52.930Z,21.2
2019-05-19T12:53:52.864Z,21.2
2019-05-19T12:55:53.780Z,21.2
2019-05-19T12:57:52.864Z,21.2
2019-05-19T12:59:52.867Z,21.2
2019-05-19T13:00:09.903Z,21.2
2019-05-19T13:01:52.817Z,21.2
2019-05-19T13:03:52.873Z,20.8
2019-05-19T13:05:52.866Z,20.4
2019-05-19T13:07:52.905Z,20.3
2019-05-19T13:09:52.860Z,20.2
2019-05-19T13:11:52.877Z,20.2
2019-05-19T13:13:52.861Z,20.1
2019-05-19T13:15:09.883Z,20.1
2019-05-19T13:15:52.894Z,20.1
2019-05-19T13:17:52.858Z,20.2
2019-05-19T13:19:52.910Z,20.2
2019-05-19T13:21:52.908Z,20.2
2019-05-19T13:23:55.539Z,20.1
2019-05-19T13:25:52.855Z,20.1
2019-05-19T13:27:52.832Z,20.3
2019-05-19T13:29:52.856Z,20.3
2019-05-19T13:30:09.793Z,20.3
2019-05-19T13:31:52.813Z,20.4
2019-05-19T13:33:52.866Z,20.5
2019-05-19T13:35:52.844Z,20.4
2019-05-19T13:37:52.860Z,20.3
2019-05-19T13:39:52.741Z,20.4
2019-05-19T13:41:52.856Z,20.5
2019-05-19T13:43:52.823Z,20.6
2019-05-19T13:45:09.993Z,20.4
2019-05-19T13:45:53.797Z,20.4
2019-05-19T13:47:52.946Z,20.4
2019-05-19T13:49:52.983Z,20.4
2019-05-19T13:51:52.912Z,20.4
2019-05-19T13:53:52.870Z,20.3
2019-05-19T13:55:52.822Z,20.4
2019-05-19T13:57:52.889Z,20.6
2019-05-19T13:59:52.819Z,20.7
2019-05-19T14:00:09.836Z,20.7
2019-05-19T14:01:52.819Z,20.8
2019-05-19T14:03:52.875Z,20.6
2019-05-19T14:05:52.865Z,20.7
2019-05-19T14:07:52.792Z,20.9
2019-05-19T14:09:52.867Z,21.1
2019-05-19T14:11:53.030Z,21
2019-05-19T14:13:52.853Z,21.3
2019-05-19T14:15:09.952Z,21.6
2019-05-19T14:15:52.934Z,21.6
2019-05-19T14:17:52.823Z,21.9
2019-05-19T14:19:52.970Z,22.4
2019-05-19T14:21:52.814Z,22.5
2019-05-19T14:23:52.882Z,22.8
2019-05-19T14:25:52.833Z,23.1
2019-05-19T14:27:52.888Z,23.2
2019-05-19T14:29:52.864Z,22.4
2019-05-19T14:30:09.873Z,22.4
2019-05-19T14:31:52.976Z,22.1
2019-05-19T14:33:52.827Z,22.1
2019-05-19T14:35:52.874Z,22.1
2019-05-19T14:37:52.921Z,22.1
2019-05-19T14:39:52.834Z,22.3
2019-05-19T14:41:52.864Z,22.2
2019-05-19T14:43:52.855Z,22.6
2019-05-19T14:45:09.912Z,22.8
2019-05-19T14:45:52.810Z,22.8
2019-05-19T14:47:57.839Z,22.9
2019-05-19T14:49:52.838Z,23.1
2019-05-19T14:51:52.871Z,22.9
2019-05-19T14:53:52.876Z,23.3
2019-05-19T14:55:52.887Z,22.9
2019-05-19T14:57:52.857Z,22.5
2019-05-19T14:59:52.947Z,22.3
2019-05-19T15:00:09.812Z,22.3
2019-05-19T15:01:52.931Z,22.3
2019-05-19T15:03:52.866Z,22.3
2019-05-19T15:05:52.950Z,21.9
2019-05-19T15:07:52.901Z,21.3
2019-05-19T15:09:54.195Z,20.9
2019-05-19T15:11:52.974Z,20.3
2019-05-19T15:13:52.978Z,19.6
2019-05-19T15:15:10.920Z,19.3
2019-05-19T15:15:52.905Z,19.1
2019-05-19T15:17:52.865Z,18.6
2019-05-19T15:19:53.903Z,18.3
2019-05-19T15:21:52.927Z,18.2
2019-05-19T15:23:52.860Z,18.1
2019-05-19T15:25:52.817Z,17.9
2019-05-19T15:28:00.016Z,17.8
2019-05-19T15:29:52.924Z,18
2019-05-19T15:30:13.329Z,18.1
2019-05-19T15:31:52.917Z,17.9
2019-05-19T15:33:52.837Z,17.6
2019-05-19T15:35:52.867Z,17.5
2019-05-19T15:37:52.898Z,17.4
2019-05-19T15:39:52.874Z,17.6
2019-05-19T15:41:52.873Z,17.6
2019-05-19T15:43:52.819Z,17.1
2019-05-19T15:45:10.757Z,16.7
2019-05-19T15:45:52.853Z,16.7
2019-05-19T15:47:52.853Z,16.6
2019-05-19T15:49:53.439Z,16.6
2019-05-19T15:52:01.391Z,16.4
2019-05-19T15:53:52.946Z,16.3
2019-05-19T15:55:52.863Z,16.1
2019-05-19T15:57:52.831Z,16
2019-05-19T15:59:52.792Z,16
2019-05-19T16:00:09.919Z,16
2019-05-19T16:01:53.595Z,16
2019-05-19T16:03:52.885Z,16.1
2019-05-19T16:05:52.823Z,16.3
2019-05-19T16:07:52.867Z,16.3
2019-05-19T16:09:52.865Z,16.3
2019-05-19T16:11:52.861Z,16.4
2019-05-19T16:13:52.949Z,16.4
2019-05-19T16:15:09.901Z,16.3
2019-05-19T16:15:52.817Z,16.3
2019-05-19T16:17:52.874Z,16.1
2019-05-19T16:19:52.874Z,15.9
2019-05-19T16:21:52.856Z,15.8
2019-05-19T16:23:52.858Z,15.7
2019-05-19T16:25:52.842Z,15.8
2019-05-19T16:27:52.839Z,15.8
2019-05-19T16:29:52.986Z,15.9
2019-05-19T16:30:09.863Z,15.8
2019-05-19T16:31:52.883Z,15.9
2019-05-19T16:33:52.866Z,15.9
2019-05-19T16:35:52.812Z,16.1
2019-05-19T16:37:52.849Z,16.2
2019-05-19T16:39:52.845Z,16.3
2019-05-19T16:41:52.882Z,16.4
2019-05-19T16:43:52.864Z,16.4
2019-05-19T16:45:09.899Z,16.4
2019-05-19T16:45:52.862Z,16.5
2019-05-19T16:47:52.858Z,16.6
2019-05-19T16:49:52.877Z,16.4
2019-05-19T16:51:52.944Z,16.3
2019-05-19T16:53:52.898Z,16
2019-05-19T16:55:52.869Z,15.7
2019-05-19T16:57:52.998Z,15.3
2019-05-19T16:59:52.875Z,15.4
2019-05-19T17:00:09.879Z,15.5
2019-05-19T17:01:52.877Z,15.6
2019-05-19T17:03:52.865Z,15.5
2019-05-19T17:05:52.880Z,15.4
2019-05-19T17:07:52.818Z,15.4
2019-05-19T17:09:52.987Z,15.3
2019-05-19T17:11:52.866Z,15.4
2019-05-19T17:13:52.828Z,15.4
2019-05-19T17:15:09.890Z,15.6
2019-05-19T17:15:52.804Z,15.6
2019-05-19T17:17:52.861Z,15.5
2019-05-19T17:19:52.904Z,15.4
2019-05-19T17:21:53.693Z,15.4
2019-05-19T17:23:52.814Z,15.3
2019-05-19T17:25:52.877Z,15.3
2019-05-19T17:27:52.929Z,15.3
2019-05-19T17:29:53.012Z,15.4
2019-05-19T17:30:09.830Z,15.4
2019-05-19T17:32:05.237Z,15.4
2019-05-19T17:33:52.879Z,15.6
2019-05-19T17:35:52.870Z,15.6
2019-05-19T17:37:52.951Z,15.5
2019-05-19T17:39:52.872Z,15.6
2019-05-19T17:41:52.877Z,15.6
2019-05-19T17:43:52.872Z,15.6
2019-05-19T17:45:09.905Z,15.6
2019-05-19T17:45:52.828Z,15.5
2019-05-19T17:47:53.417Z,15.3
2019-05-19T17:49:52.858Z,15.3
2019-05-19T17:51:52.878Z,15.3
2019-05-19T17:53:52.888Z,15.2
2019-05-19T17:55:52.861Z,15.2
2019-05-19T17:57:52.885Z,15.2
2019-05-19T17:59:52.955Z,15.1
2019-05-19T18:00:10.321Z,15.1
2019-05-19T18:01:52.866Z,15.1
2019-05-19T18:03:53.752Z,15.1
2019-05-19T18:05:52.887Z,15
2019-05-19T18:07:52.823Z,15
2019-05-19T18:09:52.868Z,14.9
2019-05-19T18:11:52.879Z,14.9
2019-05-19T18:13:52.879Z,14.8
2019-05-19T18:15:09.858Z,14.8
2019-05-19T18:15:52.894Z,14.8
2019-05-19T18:17:52.875Z,14.8
2019-05-19T18:19:52.858Z,14.7
2019-05-19T18:21:52.933Z,14.7
2019-05-19T18:23:52.858Z,14.6
2019-05-19T18:25:52.868Z,14.6
2019-05-19T18:27:52.931Z,14.5
2019-05-19T18:29:52.895Z,14.5
2019-05-19T18:30:10.744Z,14.5
2019-05-19T18:31:52.964Z,14.5
2019-05-19T18:33:53.657Z,14.5
2019-05-19T18:35:52.858Z,14.4
2019-05-19T18:37:52.905Z,14.4
2019-05-19T18:39:52.855Z,14.4
2019-05-19T18:41:52.861Z,14.4
2019-05-19T18:43:52.858Z,14.4
2019-05-19T18:45:09.844Z,14.3
2019-05-19T18:45:52.843Z,14.3
2019-05-19T18:47:52.934Z,14.3
2019-05-19T18:49:52.870Z,14.3
2019-05-19T18:51:52.883Z,14.2
2019-05-19T18:53:52.954Z,14.1
2019-05-19T18:55:52.886Z,14.1
2019-05-19T18:57:52.827Z,14.1
2019-05-19T18:59:52.867Z,14.1
2019-05-19T19:00:09.872Z,14.1
2019-05-19T19:01:52.863Z,14
2019-05-19T19:03:52.863Z,14.1
2019-05-19T19:05:52.900Z,14.1
2019-05-19T19:07:52.979Z,14
2019-05-19T19:09:52.936Z,14
2019-05-19T19:11:53.766Z,14
2019-05-19T19:13:52.870Z,14
2019-05-19T19:15:09.867Z,14
2019-05-19T19:15:52.899Z,14
2019-05-19T19:17:52.891Z,14
2019-05-19T19:19:52.854Z,14
2019-05-19T19:21:52.812Z,14
2019-05-19T19:23:52.973Z,13.9
2019-05-19T19:25:52.861Z,13.9
2019-05-19T19:27:53.619Z,13.9
2019-05-19T19:30:02.804Z,13.9
2019-05-19T19:30:09.884Z,13.9
2019-05-19T19:31:52.944Z,13.9
2019-05-19T19:33:53.747Z,13.9
2019-05-19T19:35:52.835Z,13.9
2019-05-19T19:37:52.866Z,13.9
2019-05-19T19:39:53.755Z,13.9
2019-05-19T19:41:52.889Z,13.9
2019-05-19T19:43:52.874Z,13.9
2019-05-19T19:45:09.861Z,13.9
2019-05-19T19:45:52.783Z,13.9
2019-05-19T19:47:54.706Z,13.9
2019-05-19T19:49:52.817Z,13.9
2019-05-19T19:51:52.866Z,13.9
2019-05-19T19:53:52.880Z,13.9
2019-05-19T19:55:52.947Z,13.9
2019-05-19T19:57:52.971Z,13.8
2019-05-19T19:59:52.878Z,13.8
2019-05-19T20:00:17.597Z,13.8
2019-05-19T20:01:52.849Z,13.8
2019-05-19T20:03:52.874Z,13.8
2019-05-19T20:05:52.904Z,13.8
2019-05-19T20:07:52.880Z,13.8
2019-05-19T20:09:52.944Z,13.8
2019-05-19T20:11:52.868Z,13.8
2019-05-19T20:13:52.869Z,13.8
2019-05-19T20:15:09.873Z,13.8
2019-05-19T20:15:52.858Z,13.8
2019-05-19T20:17:52.877Z,13.7
2019-05-19T20:19:52.869Z,13.6
2019-05-19T20:21:52.772Z,13.7
2019-05-19T20:23:53.702Z,13.7
2019-05-19T20:25:52.883Z,13.6
2019-05-19T20:27:52.856Z,13.6
2019-05-19T20:29:52.781Z,13.7
2019-05-19T20:30:10.780Z,13.7
2019-05-19T20:31:52.835Z,13.6
2019-05-19T20:33:52.812Z,13.6
2019-05-19T20:35:52.913Z,13.6
2019-05-19T20:37:54.687Z,13.5
2019-05-19T20:39:53.769Z,13.5
2019-05-19T20:41:52.934Z,13.5
2019-05-19T20:43:52.931Z,13.4
2019-05-19T20:45:09.895Z,13.4
2019-05-19T20:45:52.883Z,13.4
2019-05-19T20:47:52.931Z,13.4
2019-05-19T20:49:52.870Z,13.4
2019-05-19T20:51:52.895Z,13.4
2019-05-19T20:53:53.433Z,13.3
2019-05-19T20:55:52.837Z,13.3
2019-05-19T20:57:52.878Z,13.3
2019-05-19T20:59:52.966Z,13.3
2019-05-19T21:00:09.751Z,13.3
2019-05-19T21:01:52.849Z,13.3
2019-05-19T21:03:52.908Z,13.3
2019-05-19T21:05:52.883Z,13.3
2019-05-19T21:07:52.860Z,13.3
2019-05-19T21:09:52.868Z,13.3
2019-05-19T21:11:52.820Z,13.3
2019-05-19T21:13:52.867Z,13.2
2019-05-19T21:15:09.893Z,13.2
2019-05-19T21:15:52.809Z,13.3
2019-05-19T21:17:52.863Z,13.3
2019-05-19T21:19:52.831Z,13.3
2019-05-19T21:21:52.871Z,13.3
2019-05-19T21:23:52.958Z,13.3
2019-05-19T21:25:52.849Z,13.4
2019-05-19T21:27:53.651Z,13.3
2019-05-19T21:29:53.748Z,13.4
2019-05-19T21:30:09.870Z,13.4
2019-05-19T21:31:52.936Z,13.4
2019-05-19T21:33:52.877Z,13.4
2019-05-19T21:35:52.823Z,13.4
2019-05-19T21:37:52.863Z,13.4
2019-05-19T21:39:52.819Z,13.4
2019-05-19T21:41:52.948Z,13.4
2019-05-19T21:43:52.821Z,13.4
2019-05-19T21:45:09.906Z,13.4
2019-05-19T21:45:52.903Z,13.4
2019-05-19T21:47:52.850Z,13.4
2019-05-19T21:49:52.851Z,13.4
2019-05-19T21:51:52.880Z,13.4
2019-05-19T21:53:52.948Z,13.4
2019-05-19T21:55:52.861Z,13.4
2019-05-19T21:57:52.841Z,13.4
2019-05-19T21:59:52.846Z,13.4
2019-05-19T22:00:09.806Z,13.4
2019-05-19T22:01:52.874Z,13.4
2019-05-19T22:03:52.792Z,13.4
2019-05-19T22:05:53.724Z,13.3
2019-05-19T22:07:52.848Z,13.4
2019-05-19T22:09:52.865Z,13.4
2019-05-19T22:11:52.879Z,13.4
2019-05-19T22:13:53.015Z,13.4
2019-05-19T22:15:09.906Z,13.4
2019-05-19T22:15:52.893Z,13.4
2019-05-19T22:17:52.866Z,13.4
2019-05-19T22:19:52.836Z,13.4
2019-05-19T22:21:53.891Z,13.4
2019-05-19T22:23:53.005Z,13.4
2019-05-19T22:25:52.994Z,13.3
2019-05-19T22:27:52.880Z,13.3
2019-05-19T22:29:52.817Z,13.3
2019-05-19T22:30:09.798Z,13.3
2019-05-19T22:31:52.862Z,13.3
2019-05-19T22:33:52.807Z,13.3
2019-05-19T22:35:52.974Z,13.3
2019-05-19T22:37:52.845Z,13.3
2019-05-19T22:39:52.915Z,13.3
2019-05-19T22:41:52.894Z,13.2
2019-05-19T22:43:52.946Z,13.1
2019-05-19T22:45:09.812Z,13.1
2019-05-19T22:45:53.025Z,13.1
2019-05-19T22:47:52.978Z,13.1
2019-05-19T22:49:52.948Z,13
2019-05-19T22:51:52.972Z,12.9
2019-05-19T22:53:52.987Z,12.9
2019-05-19T22:55:52.840Z,12.9
2019-05-19T22:57:52.913Z,12.8
2019-05-19T22:59:52.906Z,12.8
2019-05-19T23:00:09.828Z,12.8
2019-05-19T23:01:52.963Z,12.8
2019-05-19T23:03:52.931Z,12.7
2019-05-19T23:05:52.936Z,12.7
2019-05-19T23:07:52.924Z,12.6
2019-05-19T23:09:53.001Z,12.6
2019-05-19T23:11:52.932Z,12.6
2019-05-19T23:13:52.899Z,12.6
2019-05-19T23:15:09.896Z,12.6
2019-05-19T23:15:52.873Z,12.6
2019-05-19T23:17:52.940Z,12.6
2019-05-19T23:19:52.986Z,12.6
2019-05-19T23:21:53.035Z,12.6
2019-05-19T23:23:52.842Z,12.5
2019-05-19T23:25:53.035Z,12.6
2019-05-19T23:27:52.983Z,12.6
2019-05-19T23:29:57.835Z,12.6
2019-05-19T23:30:09.884Z,12.6
2019-05-19T23:32:06.193Z,12.6
2019-05-19T23:33:52.908Z,12.6